Teslin, Canada
Current Conditions -  °F | °C
As of 4:00 AM on Friday 28 Nov 2014 (Local Time) from CYXY Reporting Station
Light Snow Light Snow  
Wind Chill: -17°   Ceiling: 800
Heat Index: -2°   Visibility: 5mi
Dew Point: -9°   Wind: 8mph
Humidity: 71%   Direction: 260°W
Pressure: 30.29"   Gusts: NA
Location:  60.17°N, 132.72°W
Report Text: CYXY 281200Z 26007KT 5SM -SN OVC008 M19/M23 A3029 RMK ST8 SLP329
Loading
Personal Weather Stations






























Interactive Weather Map New forecast layout! Learn more

10-Day Weather Forecast

Advertisements
Track Severe Weather on mobile